Time;durP1;ratioP1;P1;durP2;ratioP2;P2;SDS_P1;SDS_P2;PMS_P1;PMS_P2;Temp;Humidity;BMP_temperature;BMP_pressure;BME280_temperature;BME280_humidity;BME280_pressure;Samples;Min_cycle;Max_cycle;Signal;HPM_P1;HPM_P2
2021/08/08 00:01:04;;;;;;;2.35;1.13;;;;;;;13.41;100.00;98355.84;5056910;28;20110;-79
2021/08/08 00:03:31;;;;;;;0.90;0.80;;;;;;;13.33;100.00;98355.25;5055327;28;20065;-79
2021/08/08 00:05:58;;;;;;;4.07;1.67;;;;;;;13.53;100.00;98350.47;5055057;28;20109;-79
2021/08/08 00:08:29;;;;;;;4.93;1.60;;;;;;;13.68;100.00;98371.16;5056320;28;20049;-79
2021/08/08 00:10:58;;;;;;;1.33;1.13;;;;;;;13.53;100.00;98342.28;5055185;28;20050;-79
2021/08/08 00:13:25;;;;;;;1.83;1.20;;;;;;;13.77;100.00;98356.13;5059668;28;20060;-79
2021/08/08 00:15:52;;;;;;;5.82;1.50;;;;;;;13.62;100.00;98348.28;5073724;28;20059;-79
2021/08/08 00:18:22;;;;;;;4.93;1.20;;;;;;;13.73;100.00;98365.84;5074911;28;20476;-79
2021/08/08 00:20:49;;;;;;;2.15;1.13;;;;;;;13.67;100.00;98359.41;5075070;28;20048;-79
2021/08/08 00:23:16;;;;;;;4.13;1.20;;;;;;;13.65;100.00;98364.22;5074668;28;20079;-79
2021/08/08 00:25:43;;;;;;;6.32;1.30;;;;;;;13.72;100.00;98381.41;5075381;28;20066;-79
2021/08/08 00:28:11;;;;;;;6.85;1.35;;;;;;;13.58;100.00;98363.47;5074818;28;20523;-79
2021/08/08 00:30:37;;;;;;;1.55;1.23;;;;;;;13.54;100.00;98359.53;5056215;28;20440;-79
2021/08/08 00:33:04;;;;;;;10.98;1.35;;;;;;;13.58;100.00;98367.03;5054764;28;20095;-79
2021/08/08 00:35:31;;;;;;;4.72;1.17;;;;;;;13.56;100.00;98368.31;5067177;28;20676;-79
2021/08/08 00:37:58;;;;;;;3.35;1.10;;;;;;;13.43;100.00;98372.00;5069117;28;20056;-79
2021/08/08 00:40:24;;;;;;;3.42;1.02;;;;;;;13.54;100.00;98386.81;5054794;28;20045;-79
2021/08/08 00:42:51;;;;;;;1.63;1.00;;;;;;;13.49;100.00;98384.78;5053376;28;20463;-79
2021/08/08 00:45:21;;;;;;;2.53;0.82;;;;;;;13.41;100.00;98382.31;5052705;28;20049;-78
2021/08/08 00:47:50;;;;;;;3.92;1.08;;;;;;;13.38;100.00;98380.00;5054202;28;20056;-79
2021/08/08 00:50:17;;;;;;;5.60;1.02;;;;;;;13.26;100.00;98367.06;5054605;28;20041;-79
2021/08/08 00:52:44;;;;;;;2.65;1.30;;;;;;;13.22;100.00;98382.22;5054915;28;20049;-79
2021/08/08 00:55:12;;;;;;;4.50;0.85;;;;;;;13.18;100.00;98383.69;5054501;28;20051;-79
2021/08/08 00:57:38;;;;;;;1.67;0.80;;;;;;;13.14;100.00;98374.28;5054557;28;20053;-79
2021/08/08 01:00:08;;;;;;;4.38;1.10;;;;;;;13.14;100.00;98387.91;5054493;28;20495;-79
2021/08/08 01:02:39;;;;;;;2.33;1.00;;;;;;;13.04;100.00;98377.50;5054005;28;20045;-80
2021/08/08 01:05:09;;;;;;;1.15;1.00;;;;;;;13.14;100.00;98381.63;5054186;28;20048;-79
2021/08/08 01:07:41;;;;;;;4.15;1.00;;;;;;;13.05;100.00;98383.78;5053804;28;20106;-79
2021/08/08 01:10:10;;;;;;;5.93;1.17;;;;;;;13.09;100.00;98379.56;5054506;28;20049;-80
2021/08/08 01:12:38;;;;;;;1.98;0.98;;;;;;;13.01;100.00;98388.84;5056129;28;20082;-80
2021/08/08 01:15:06;;;;;;;4.60;1.05;;;;;;;13.12;100.00;98402.88;5073949;28;20045;-79
2021/08/08 01:17:34;;;;;;;0.90;0.90;;;;;;;13.07;100.00;98379.78;5074214;28;20102;-79
2021/08/08 01:20:06;;;;;;;5.90;1.27;;;;;;;13.20;100.00;98405.31;5069753;28;20040;-80
2021/08/08 01:22:34;;;;;;;3.25;1.15;;;;;;;13.20;100.00;98389.78;5074849;28;20052;-79
2021/08/08 01:25:05;;;;;;;0.85;0.70;;;;;;;13.36;100.00;98409.44;5067679;28;20118;-79
2021/08/08 01:27:33;;;;;;;4.78;0.80;;;;;;;13.47;100.00;98414.16;5073850;28;20135;-79
2021/08/08 01:30:00;;;;;;;1.35;0.70;;;;;;;13.39;100.00;98412.56;5064735;28;20045;-79
2021/08/08 01:32:29;;;;;;;1.27;0.82;;;;;;;13.34;100.00;98386.97;5053361;28;20542;-79
2021/08/08 01:34:56;;;;;;;3.40;0.80;;;;;;;13.53;99.73;98410.53;5054932;28;20056;-79
2021/08/08 01:37:23;;;;;;;1.00;0.65;;;;;;;13.50;99.42;98407.44;5072885;28;20048;-79
2021/08/08 01:39:53;;;;;;;1.00;0.82;;;;;;;13.54;100.00;98408.69;5072210;28;20049;-79
2021/08/08 01:42:23;;;;;;;2.88;0.90;;;;;;;13.46;100.00;98407.06;5052992;28;20107;-79
2021/08/08 01:44:53;;;;;;;0.98;0.70;;;;;;;13.44;100.00;98412.75;5052639;28;20053;-79
2021/08/08 01:47:24;;;;;;;2.75;0.70;;;;;;;13.37;100.00;98400.16;5061263;28;20052;-79
2021/08/08 01:49:52;;;;;;;0.65;0.65;;;;;;;13.34;100.00;98417.00;5072997;28;20053;-79
2021/08/08 01:52:19;;;;;;;3.15;1.10;;;;;;;13.33;100.00;98412.59;5066719;28;20099;-79
2021/08/08 01:54:46;;;;;;;1.27;0.95;;;;;;;13.23;100.00;98404.88;5052597;28;20053;-79
2021/08/08 01:57:13;;;;;;;2.45;0.80;;;;;;;13.33;100.00;98407.13;5053592;28;20447;-79
2021/08/08 01:59:41;;;;;;;2.35;1.42;;;;;;;13.31;100.00;98417.41;5070536;28;20048;-79
2021/08/08 02:02:10;;;;;;;17.80;1.67;;;;;;;13.25;99.87;98421.88;5072499;28;20113;-79
2021/08/08 02:04:38;;;;;;;3.88;1.27;;;;;;;13.17;100.00;98430.31;5072710;28;20078;-79
2021/08/08 02:07:08;;;;;;;1.70;1.30;;;;;;;13.11;100.00;98423.84;5073014;28;20052;-79
2021/08/08 02:09:34;;;;;;;3.00;1.70;;;;;;;13.18;100.00;98429.28;5058604;28;20504;-80
2021/08/08 02:12:01;;;;;;;1.40;0.90;;;;;;;13.00;100.00;98414.47;5053073;28;20049;-79
2021/08/08 02:14:28;;;;;;;1.75;1.05;;;;;;;13.10;100.00;98433.09;5063662;28;20114;-79
2021/08/08 02:16:56;;;;;;;1.88;1.10;;;;;;;12.89;100.00;98407.81;5073296;28;20053;-79
2021/08/08 02:19:23;;;;;;;2.85;0.90;;;;;;;12.89;100.00;98428.81;5073126;28;20389;-79
2021/08/08 02:21:50;;;;;;;1.30;0.77;;;;;;;12.80;100.00;98432.84;5073266;28;20441;-79
2021/08/08 02:24:17;;;;;;;4.88;0.70;;;;;;;12.69;100.00;98434.34;5070481;28;20044;-79
2021/08/08 02:26:44;;;;;;;6.25;0.80;;;;;;;12.66;100.00;98429.31;5053052;28;20056;-79
2021/08/08 02:29:11;;;;;;;0.80;0.80;;;;;;;12.59;100.00;98440.25;5053367;28;20044;-79
2021/08/08 02:31:38;;;;;;;1.55;0.70;;;;;;;12.53;100.00;98441.13;5055956;28;20437;-79
2021/08/08 02:34:08;;;;;;;2.92;0.70;;;;;;;12.56;100.00;98446.97;5072808;28;20110;-79
2021/08/08 02:36:34;;;;;;;3.25;0.75;;;;;;;12.60;100.00;98446.53;5073116;28;20102;-79
2021/08/08 02:39:01;;;;;;;0.80;0.80;;;;;;;12.65;100.00;98461.22;5073257;28;20045;-79
2021/08/08 02:41:28;;;;;;;2.30;0.63;;;;;;;12.56;100.00;98460.63;5071417;28;20094;-79
2021/08/08 02:43:58;;;;;;;4.00;1.70;;;;;;;12.48;100.00;98452.69;5062601;28;20111;-79
2021/08/08 02:46:25;;;;;;;0.60;0.60;;;;;;;12.52;100.00;98453.06;5052521;28;20052;-79
2021/08/08 02:48:51;;;;;;;1.45;0.60;;;;;;;12.37;100.00;98450.59;5055166;28;20045;-79
2021/08/08 02:51:20;;;;;;;13.98;1.48;;;;;;;12.34;100.00;98451.03;5056778;28;20488;-79
2021/08/08 02:53:46;;;;;;;3.08;0.80;;;;;;;12.27;100.00;98447.47;5056432;28;20052;-79
2021/08/08 02:56:13;;;;;;;7.10;0.77;;;;;;;12.32;100.00;98464.06;5064074;28;20454;-79
2021/08/08 02:58:40;;;;;;;0.95;0.80;;;;;;;12.31;100.00;98468.66;5076948;28;20052;-79
2021/08/08 03:01:07;;;;;;;1.75;0.90;;;;;;;12.20;100.00;98466.59;5058953;28;20095;-79
2021/08/08 03:03:34;;;;;;;1.55;0.80;;;;;;;12.19;100.00;98460.31;5056532;28;20095;-80
2021/08/08 03:06:01;;;;;;;2.10;0.63;;;;;;;12.14;100.00;98462.81;5056183;28;20080;-79
2021/08/08 03:08:29;;;;;;;6.07;0.73;;;;;;;12.24;100.00;98488.78;5056773;28;20048;-79
2021/08/08 03:10:57;;;;;;;1.50;0.63;;;;;;;12.13;100.00;98476.66;5058718;28;20098;-79
2021/08/08 03:13:23;;;;;;;1.67;0.68;;;;;;;12.24;100.00;98494.25;5076274;28;20048;-79
2021/08/08 03:15:50;;;;;;;2.35;0.90;;;;;;;12.11;100.00;98487.75;5067171;28;20053;-79
2021/08/08 03:18:17;;;;;;;3.58;1.15;;;;;;;12.16;100.00;98490.72;5056414;28;20048;-79
2021/08/08 03:20:44;;;;;;;7.82;0.80;;;;;;;12.16;100.00;98500.75;5056158;28;20046;-79
2021/08/08 03:23:10;;;;;;;4.00;0.80;;;;;;;12.10;100.00;98507.06;5056179;28;20052;-79
2021/08/08 03:25:39;;;;;;;9.02;0.82;;;;;;;12.17;100.00;98516.88;5056120;28;20088;-79
2021/08/08 03:28:05;;;;;;;3.67;1.30;;;;;;;12.10;100.00;98513.31;5055738;28;20462;-79
2021/08/08 03:30:32;;;;;;;1.02;0.90;;;;;;;12.00;100.00;98505.59;5056205;28;20130;-79
2021/08/08 03:32:59;;;;;;;3.75;0.73;;;;;;;11.93;100.00;98502.03;5056278;28;20134;-79
2021/08/08 03:35:26;;;;;;;3.92;0.70;;;;;;;12.10;100.00;98528.84;5056241;28;20103;-79
2021/08/08 03:37:52;;;;;;;3.55;0.88;;;;;;;12.02;100.00;98525.28;5056144;28;20053;-79
2021/08/08 03:40:20;;;;;;;2.75;0.95;;;;;;;11.98;100.00;98520.47;5056038;28;20053;-79
2021/08/08 03:42:48;;;;;;;5.03;1.13;;;;;;;11.97;100.00;98518.81;5054750;28;20061;-79
2021/08/08 03:45:15;;;;;;;1.92;0.80;;;;;;;12.18;100.00;98537.66;5058063;28;20106;-79
2021/08/08 03:47:45;;;;;;;4.75;0.65;;;;;;;12.09;100.00;98532.59;5055438;28;20091;-80
2021/08/08 03:50:12;;;;;;;2.33;1.23;;;;;;;12.08;100.00;98548.13;5056031;28;20045;-79
2021/08/08 03:52:39;;;;;;;2.97;0.80;;;;;;;11.98;100.00;98534.09;5055455;28;20056;-79
2021/08/08 03:55:06;;;;;;;3.58;1.00;;;;;;;11.98;100.00;98540.38;5055177;28;20045;-79
2021/08/08 03:57:33;;;;;;;5.43;1.30;;;;;;;11.85;100.00;98532.19;5055632;28;20045;-79
2021/08/08 04:00:01;;;;;;;2.00;0.82;;;;;;;11.83;100.00;98535.09;5054885;28;20048;-79
2021/08/08 04:02:28;;;;;;;3.17;0.93;;;;;;;11.99;100.00;98552.13;5074708;28;20118;-79
2021/08/08 04:04:55;;;;;;;4.72;1.20;;;;;;;11.81;100.00;98537.19;5075146;28;20488;-79
2021/08/08 04:07:21;;;;;;;5.72;1.10;;;;;;;11.98;100.00;98548.56;5075183;28;20110;-79
2021/08/08 04:09:48;;;;;;;2.08;0.80;;;;;;;12.00;100.00;98545.63;5075201;28;20488;-79
2021/08/08 04:12:15;;;;;;;3.63;0.95;;;;;;;12.06;100.00;98547.50;5075186;28;20051;-79
2021/08/08 04:14:43;;;;;;;2.92;1.30;;;;;;;12.13;100.00;98547.50;5075032;28;20049;-79
2021/08/08 04:17:11;;;;;;;2.10;0.95;;;;;;;12.15;100.00;98548.13;5066411;28;20131;-79
2021/08/08 04:19:38;;;;;;;2.88;1.08;;;;;;;12.29;100.00;98562.59;5055669;28;20153;-79
2021/08/08 04:22:05;;;;;;;6.05;1.15;;;;;;;12.28;100.00;98569.09;5061316;28;20053;-79
2021/08/08 04:24:31;;;;;;;4.63;1.20;;;;;;;12.34;100.00;98565.50;5074746;28;20044;-79
2021/08/08 04:26:58;;;;;;;9.32;1.20;;;;;;;12.46;100.00;98565.72;5074706;28;20098;-79
2021/08/08 04:29:25;;;;;;;3.63;1.17;;;;;;;12.55;100.00;98564.44;5075147;28;20048;-79
2021/08/08 04:31:52;;;;;;;4.00;1.15;;;;;;;12.61;100.00;98571.75;5075182;28;20471;-79
2021/08/08 04:34:20;;;;;;;2.25;1.40;;;;;;;12.66;100.00;98577.44;5062654;28;20631;-78
2021/08/08 04:36:46;;;;;;;6.80;1.35;;;;;;;12.64;100.00;98573.22;5055124;28;20048;-77
2021/08/08 04:39:13;;;;;;;4.57;1.23;;;;;;;12.67;100.00;98578.25;5054523;28;20488;-78
2021/08/08 04:41:40;;;;;;;3.00;1.10;;;;;;;12.78;100.00;98579.50;5054152;28;20458;-78
2021/08/08 04:44:07;;;;;;;3.40;1.40;;;;;;;12.85;100.00;98572.13;5053378;28;20076;-79
2021/08/08 04:46:33;;;;;;;1.60;1.00;;;;;;;12.85;100.00;98574.88;5071798;28;20094;-78
2021/08/08 04:49:00;;;;;;;1.50;1.25;;;;;;;13.07;100.00;98589.06;5067841;28;20369;-78
2021/08/08 04:51:28;;;;;;;1.08;1.00;;;;;;;13.13;100.00;98576.44;5069421;28;20041;-78
2021/08/08 04:53:55;;;;;;;1.85;1.00;;;;;;;13.16;100.00;98581.47;5073010;28;20048;-78
2021/08/08 04:56:24;;;;;;;1.88;1.27;;;;;;;13.15;100.00;98586.09;5053881;28;20052;-78
2021/08/08 04:58:51;;;;;;;3.45;1.10;;;;;;;13.11;100.00;98573.94;5054360;28;20049;-78
2021/08/08 05:01:18;;;;;;;6.38;1.02;;;;;;;13.24;100.00;98595.72;5053955;28;20090;-78
2021/08/08 05:03:45;;;;;;;3.15;1.50;;;;;;;13.24;99.87;98595.72;5054071;28;20052;-78
2021/08/08 05:06:11;;;;;;;3.10;1.38;;;;;;;13.26;100.00;98574.50;5062284;28;20053;-78
2021/08/08 05:08:40;;;;;;;7.32;1.50;;;;;;;13.36;100.00;98586.88;5054027;28;20083;-78
2021/08/08 05:11:06;;;;;;;6.00;1.05;;;;;;;13.38;100.00;98577.44;5054180;28;20486;-78
2021/08/08 05:13:33;;;;;;;1.85;1.00;;;;;;;13.60;100.00;98588.03;5053757;28;20049;-78
2021/08/08 05:16:00;;;;;;;2.67;0.93;;;;;;;13.68;99.97;98584.19;5054247;28;20049;-78
2021/08/08 05:18:27;;;;;;;0.85;0.85;;;;;;;13.89;99.73;98588.47;5054038;28;20377;-78
2021/08/08 05:20:53;;;;;;;5.97;1.30;;;;;;;13.86;99.55;98580.72;5053938;28;20049;-78
2021/08/08 05:23:20;;;;;;;2.97;1.27;;;;;;;13.85;97.97;98577.16;5061123;28;20084;-78
2021/08/08 05:25:48;;;;;;;1.85;1.20;;;;;;;14.06;97.82;98591.50;5054100;28;20119;-78
2021/08/08 05:28:15;;;;;;;5.28;1.20;;;;;;;14.03;97.72;98598.28;5053893;28;20052;-78
2021/08/08 05:30:42;;;;;;;1.05;0.95;;;;;;;14.11;97.81;98602.63;5053805;28;20447;-78
2021/08/08 05:33:08;;;;;;;2.80;1.05;;;;;;;14.23;96.59;98603.56;5053604;28;20041;-78
2021/08/08 05:35:35;;;;;;;6.63;1.50;;;;;;;14.45;95.41;98600.44;5053392;28;20111;-78
2021/08/08 05:38:02;;;;;;;1.50;1.08;;;;;;;14.69;94.24;98605.09;5053916;28;20045;-78
2021/08/08 05:40:29;;;;;;;1.58;0.80;;;;;;;14.99;93.29;98601.63;5053405;28;20052;-78
2021/08/08 05:42:58;;;;;;;3.10;1.00;;;;;;;15.44;92.23;98600.47;5056203;28;20044;-78
2021/08/08 05:45:25;;;;;;;2.95;1.08;;;;;;;15.84;88.61;98604.63;5051734;28;20098;-78
2021/08/08 05:47:55;;;;;;;3.50;0.88;;;;;;;16.27;87.82;98612.59;5053488;28;20045;-79
2021/08/08 05:50:22;;;;;;;;;;;;;;;16.44;83.92;98603.69;5054050;28;20064;-78
2021/08/08 05:52:49;;;;;;;0.95;0.82;;;;;;;16.42;84.27;98605.81;5053425;28;19974;-79
2021/08/08 05:55:16;;;;;;;5.10;0.70;;;;;;;16.64;83.22;98614.31;5071184;28;20522;-78
2021/08/08 05:57:42;;;;;;;1.13;0.60;;;;;;;16.66;83.69;98614.91;5054863;28;20408;-79
2021/08/08 06:00:12;;;;;;;4.53;0.73;;;;;;;16.75;82.96;98623.63;5053561;28;20122;-79
2021/08/08 06:02:39;;;;;;;3.58;0.90;;;;;;;17.04;81.62;98632.84;5053348;28;20488;-79
2021/08/08 06:05:07;;;;;;;1.30;0.80;;;;;;;17.29;80.43;98627.06;5055542;28;20491;-79
2021/08/08 06:07:33;;;;;;;0.90;0.80;;;;;;;17.63;79.72;98621.72;5072657;28;20483;-79
2021/08/08 06:10:01;;;;;;;4.00;0.88;;;;;;;17.48;78.67;98625.00;5073190;28;20485;-79
2021/08/08 06:12:28;;;;;;;1.65;0.90;;;;;;;17.58;77.79;98621.59;5073600;28;20045;-79
2021/08/08 06:14:54;;;;;;;6.00;1.45;;;;;;;17.73;77.77;98621.06;5056387;28;20045;-79
2021/08/08 06:17:22;;;;;;;0.60;0.60;;;;;;;18.11;77.54;98616.88;5053534;28;20102;-79
2021/08/08 06:19:49;;;;;;;7.20;0.90;;;;;;;18.50;76.67;98627.16;5053196;28;20068;-79
2021/08/08 06:22:16;;;;;;;4.85;0.68;;;;;;;18.47;75.75;98636.78;5071571;28;20048;-79
2021/08/08 06:24:43;;;;;;;4.70;0.80;;;;;;;18.34;76.67;98643.41;5076894;28;20041;-80
2021/08/08 06:27:09;;;;;;;3.20;0.80;;;;;;;18.65;74.77;98637.59;5066169;28;20049;-79
2021/08/08 06:29:37;;;;;;;2.83;0.57;;;;;;;18.82;74.09;98643.06;5057464;28;20045;-82
2021/08/08 06:32:05;;;;;;;4.30;0.65;;;;;;;18.85;72.97;98646.22;5063192;28;20048;-80
2021/08/08 06:34:33;;;;;;;1.50;0.63;;;;;;;19.13;73.10;98636.13;5076819;28;20048;-80
2021/08/08 06:36:59;;;;;;;1.70;0.70;;;;;;;19.28;71.73;98643.78;5072362;28;20557;-80
2021/08/08 06:39:26;;;;;;;3.58;0.80;;;;;;;19.42;70.34;98634.06;5059004;28;20466;-80
2021/08/08 06:41:53;;;;;;;1.10;0.60;;;;;;;19.51;71.10;98641.88;5076607;28;20044;-80
2021/08/08 06:44:20;;;;;;;1.42;1.25;;;;;;;19.48;69.03;98625.84;5074563;28;20412;-80
2021/08/08 06:46:53;;;;;;;1.60;0.60;;;;;;;19.31;70.62;98645.22;5058604;28;20095;-81
2021/08/08 06:49:20;;;;;;;2.72;0.82;;;;;;;19.71;70.14;98658.69;5060487;28;20045;-80
2021/08/08 06:51:49;;;;;;;1.42;0.70;;;;;;;20.10;68.83;98666.06;5076900;28;20114;-81
2021/08/08 06:54:16;;;;;;;4.50;0.90;;;;;;;20.11;69.68;98670.47;5073789;28;20052;-80
2021/08/08 06:56:43;;;;;;;3.00;0.40;;;;;;;18.78;71.69;98675.81;5056592;28;20623;-80
2021/08/08 06:59:09;;;;;;;3.40;0.70;;;;;;;17.84;75.00;98666.94;5056651;28;20057;-80
2021/08/08 07:01:37;;;;;;;2.03;0.70;;;;;;;17.94;75.86;98673.75;5056331;28;20102;-80
2021/08/08 07:04:04;;;;;;;4.13;0.70;;;;;;;18.70;72.86;98670.72;5071276;28;20045;-80
2021/08/08 07:06:31;;;;;;;1.58;0.73;;;;;;;19.08;72.95;98660.88;5064064;28;20049;-80
2021/08/08 07:08:59;;;;;;;3.42;0.70;;;;;;;18.89;71.58;98665.81;5057676;28;20076;-80
2021/08/08 07:11:26;;;;;;;0.52;0.52;;;;;;;18.41;73.28;98673.50;5067938;28;20049;-80
2021/08/08 07:13:53;;;;;;;4.78;0.65;;;;;;;18.17;72.96;98659.06;5073591;28;20056;-80
2021/08/08 07:16:20;;;;;;;1.52;0.73;;;;;;;18.99;71.15;98663.22;5074518;28;20044;-81
2021/08/08 07:18:46;;;;;;;2.33;0.40;;;;;;;19.46;69.31;98670.22;5055687;28;20048;-80
2021/08/08 07:21:13;;;;;;;2.17;0.57;;;;;;;19.98;67.06;98674.50;5055653;28;20538;-80
2021/08/08 07:23:40;;;;;;;2.55;0.68;;;;;;;20.31;65.12;98665.16;5058584;28;20053;-80
2021/08/08 07:26:08;;;;;;;2.25;0.63;;;;;;;20.22;65.29;98666.75;5055204;28;20090;-80
2021/08/08 07:28:35;;;;;;;2.15;0.55;;;;;;;20.54;64.21;98673.41;5060565;28;20091;-81
2021/08/08 07:31:02;;;;;;;0.40;0.40;;;;;;;20.59;63.50;98665.16;5054877;28;20053;-80
2021/08/08 07:33:28;;;;;;;1.48;0.52;;;;;;;20.97;63.28;98668.78;5070304;28;20052;-81
2021/08/08 07:35:55;;;;;;;5.60;1.25;;;;;;;21.17;61.30;98670.88;5059619;28;20465;-82
2021/08/08 07:38:22;;;;;;;2.38;1.02;;;;;;;21.09;60.85;98668.59;5054742;28;20122;-80
2021/08/08 07:40:54;;;;;;;2.10;0.70;;;;;;;21.40;60.22;98672.38;5070125;28;20110;-81
2021/08/08 07:43:23;;;;;;;3.20;1.05;;;;;;;21.07;60.29;98659.75;5068113;28;20107;-82
2021/08/08 07:45:49;;;;;;;5.75;0.90;;;;;;;20.88;61.58;98671.22;5067316;28;20048;-81
2021/08/08 07:48:16;;;;;;;3.97;0.80;;;;;;;21.07;64.05;98660.56;5061056;28;20048;-81
2021/08/08 07:50:58;;;;;;;7.80;0.85;;;;;;;21.08;59.77;98667.78;5065106;28;20049;-81
2021/08/08 07:53:27;;;;;;;1.73;0.60;;;;;;;21.30;61.19;98664.88;5074322;28;20052;-82
2021/08/08 07:55:55;;;;;;;7.88;0.82;;;;;;;21.04;57.21;98650.06;5075659;28;20057;-82
2021/08/08 07:58:24;;;;;;;6.07;0.90;;;;;;;20.88;60.99;98664.84;5075485;28;20560;-80
2021/08/08 08:00:51;;;;;;;3.25;0.88;;;;;;;20.76;61.19;98665.88;5075676;28;20047;-80
2021/08/08 08:03:19;;;;;;;3.00;0.98;;;;;;;21.13;59.69;98675.25;5074204;28;20094;-79
2021/08/08 08:05:46;;;;;;;4.13;0.98;;;;;;;21.40;58.98;98661.31;5066040;28;20412;-79
2021/08/08 08:08:13;;;;;;;2.30;0.68;;;;;;;21.54;59.77;98662.56;5053613;28;20073;-79
2021/08/08 08:10:40;;;;;;;5.45;0.85;;;;;;;21.31;60.15;98679.53;5053883;28;20053;-79
2021/08/08 08:13:06;;;;;;;3.08;0.50;;;;;;;20.79;62.46;98684.69;5053368;28;20550;-79
2021/08/08 08:15:35;;;;;;;6.65;1.70;;;;;;;20.51;61.96;98683.03;5053297;28;20080;-79
2021/08/08 08:18:02;;;;;;;4.10;0.85;;;;;;;20.63;61.94;98680.09;5053877;28;20063;-79
2021/08/08 08:20:30;;;;;;;5.72;0.95;;;;;;;20.59;60.44;98678.94;5053919;28;20051;-80
2021/08/08 08:22:57;;;;;;;2.55;1.00;;;;;;;20.94;61.06;98686.75;5053043;28;20102;-79
2021/08/08 08:25:24;;;;;;;1.95;0.82;;;;;;;21.69;60.61;98674.78;5053880;28;20098;-80
2021/08/08 08:27:51;;;;;;;3.15;0.77;;;;;;;21.35;58.93;98680.66;5053314;28;20515;-79
2021/08/08 08:30:18;;;;;;;2.92;0.80;;;;;;;21.35;58.41;98680.66;5053312;28;20045;-80
2021/08/08 08:32:46;;;;;;;1.75;0.80;;;;;;;21.25;59.02;98684.19;5053059;28;20064;-79
2021/08/08 08:35:13;;;;;;;1.05;0.68;;;;;;;20.83;58.68;98680.28;5056220;28;20157;-79
2021/08/08 08:37:40;;;;;;;5.53;0.85;;;;;;;20.79;62.82;98687.47;5070109;28;20071;-80
2021/08/08 08:40:08;;;;;;;2.47;0.70;;;;;;;20.65;62.51;98697.22;5055853;28;20045;-80
2021/08/08 08:42:41;;;;;;;2.03;0.82;;;;;;;20.32;61.35;98688.06;5060214;28;20095;-79
2021/08/08 08:45:08;;;;;;;2.45;0.80;;;;;;;20.04;63.05;98701.03;5051689;28;20485;-79
2021/08/08 08:47:35;;;;;;;4.53;1.30;;;;;;;19.85;63.83;98695.00;5052579;28;20048;-79
2021/08/08 08:50:05;;;;;;;5.18;0.80;;;;;;;19.90;63.80;98694.25;5052569;28;20052;-80
2021/08/08 08:52:32;;;;;;;4.80;0.93;;;;;;;19.93;62.66;98690.97;5052617;28;20053;-80
2021/08/08 08:54:59;;;;;;;4.15;1.10;;;;;;;20.02;63.49;98680.31;5052522;28;20045;-80
2021/08/08 08:57:27;;;;;;;2.55;0.88;;;;;;;20.44;59.70;98693.44;5064944;28;20480;-80
2021/08/08 08:59:55;;;;;;;12.02;0.98;;;;;;;20.95;57.25;98701.38;5066109;28;20040;-80
2021/08/08 09:02:22;;;;;;;3.67;1.05;;;;;;;21.14;58.28;98686.06;5064288;28;20060;-80
2021/08/08 09:04:49;;;;;;;2.88;1.10;;;;;;;21.57;57.22;98691.56;5071244;28;20052;-81
2021/08/08 09:07:17;;;;;;;2.00;0.80;;;;;;;21.13;55.03;98705.66;5066289;28;20106;-80
2021/08/08 09:09:44;;;;;;;3.72;1.10;;;;;;;20.38;55.52;98695.31;5052303;28;20049;-79
2021/08/08 09:12:20;;;;;;;1.80;1.00;;;;;;;20.33;58.14;98714.59;5068759;28;20040;-80
2021/08/08 09:14:56;;;;;;;1.73;0.90;;;;;;;20.33;58.49;98709.91;5058931;28;20053;-79
2021/08/08 09:17:31;;;;;;;2.78;0.90;;;;;;;20.43;55.85;98695.38;5070573;28;20451;-80
2021/08/08 09:20:03;;;;;;;2.65;0.90;;;;;;;20.40;55.73;98709.72;5071798;28;20049;-83
2021/08/08 09:22:31;;;;;;;5.35;1.13;;;;;;;20.55;57.17;98705.41;5062569;28;20048;-81
2021/08/08 09:24:59;;;;;;;3.65;1.10;;;;;;;20.60;55.61;98706.31;5051059;28;20511;-81
2021/08/08 09:27:35;;;;;;;2.65;0.95;;;;;;;20.57;55.50;98714.28;5051305;28;20045;-81
2021/08/08 09:30:07;;;;;;;2.00;0.88;;;;;;;20.67;58.59;98693.16;5052298;28;20049;-82
2021/08/08 09:32:35;;;;;;;5.28;1.00;;;;;;;20.66;56.79;98713.56;5052151;28;20051;-81
2021/08/08 09:35:09;;;;;;;3.42;0.95;;;;;;;20.54;56.27;98695.50;5051765;28;20063;-82
2021/08/08 09:37:37;;;;;;;2.92;1.20;;;;;;;21.09;56.90;98710.06;5051913;28;20518;-81
2021/08/08 09:40:14;;;;;;;4.95;1.23;;;;;;;21.32;54.45;98709.66;5051844;28;20044;-82
2021/08/08 09:42:44;;;;;;;5.13;1.15;;;;;;;21.62;53.44;98702.69;5051793;28;20481;-83
2021/08/08 09:45:14;;;;;;;4.57;1.05;;;;;;;21.49;53.29;98703.13;5050502;28;20119;-82
2021/08/08 09:47:43;;;;;;;3.63;1.00;;;;;;;21.59;54.65;98702.38;5051713;28;20053;-82
2021/08/08 09:50:14;;;;;;;5.40;1.02;;;;;;;21.70;52.06;98706.88;5055745;28;20051;-82
2021/08/08 09:52:50;;;;;;;2.65;1.17;;;;;;;21.66;51.62;98711.25;5057253;28;20045;-83
2021/08/08 09:55:19;;;;;;;4.45;1.10;;;;;;;21.57;53.33;98697.09;5051132;28;20052;-82
2021/08/08 09:57:46;;;;;;;1.97;0.77;;;;;;;21.85;55.60;98718.00;5053331;28;20049;-83
2021/08/08 10:00:23;;;;;;;2.78;0.90;;;;;;;21.71;52.45;98717.66;5057121;28;20055;-82
2021/08/08 10:02:50;;;;;;;3.33;0.90;;;;;;;21.46;54.77;98710.03;5062854;28;20138;-82
2021/08/08 10:05:17;;;;;;;2.70;1.02;;;;;;;21.59;54.68;98716.19;5071666;28;20048;-82
2021/08/08 10:07:49;;;;;;;3.72;0.93;;;;;;;21.69;52.13;98719.03;5057638;28;20052;-82
2021/08/08 10:10:17;;;;;;;2.97;0.85;;;;;;;21.68;52.48;98711.81;5052977;28;20146;-82
2021/08/08 10:13:16;;;;;;;2.80;1.10;;;;;;;21.32;50.86;98725.44;5051857;28;20052;-82
2021/08/08 10:15:44;;;;;;;4.50;1.05;;;;;;;21.61;53.01;98722.31;5026796;28;20052;-82
2021/08/08 10:18:14;;;;;;;4.28;1.02;;;;;;;21.66;52.85;98725.09;5051459;28;20055;-82
2021/08/08 10:20:41;;;;;;;3.78;2.45;;;;;;;21.69;54.59;98710.72;5051196;28;20053;-83
2021/08/08 10:23:14;;;;;;;3.33;0.90;;;;;;;22.25;50.56;98702.66;5052243;28;20052;-83
2021/08/08 10:25:43;;;;;;;2.50;0.95;;;;;;;22.59;49.28;98718.78;5051540;28;20049;-84
2021/08/08 10:28:15;;;;;;;2.03;0.85;;;;;;;22.84;47.75;98697.78;5051500;28;20094;-83
2021/08/08 10:30:43;;;;;;;8.02;1.15;;;;;;;22.76;51.26;98699.16;5061575;28;20045;-82
2021/08/08 10:33:11;;;;;;;6.70;1.00;;;;;;;22.65;50.39;98719.63;5069639;28;20044;-82
2021/08/08 10:35:40;;;;;;;3.80;0.93;;;;;;;22.60;51.46;98726.00;5054172;28;20052;-82
2021/08/08 10:38:09;;;;;;;3.77;0.70;;;;;;;22.45;51.64;98720.44;5051373;28;20048;-82
2021/08/08 10:40:37;;;;;;;2.63;0.80;;;;;;;22.50;49.81;98709.38;5051542;28;20052;-83
2021/08/08 10:43:09;;;;;;;3.40;0.93;;;;;;;22.26;50.68;98720.91;5051289;28;20045;-85
2021/08/08 10:45:37;;;;;;;3.53;1.15;;;;;;;21.81;50.53;98710.50;5051475;28;20065;-83
2021/08/08 10:48:06;;;;;;;9.02;1.20;;;;;;;21.58;52.89;98726.44;5062223;28;20045;-82
2021/08/08 10:50:39;;;;;;;2.90;1.13;;;;;;;21.58;52.78;98722.84;5070828;28;20052;-82
2021/08/08 10:53:20;;;;;;;3.45;1.02;;;;;;;21.34;53.04;98707.47;5071016;28;20086;-82
2021/08/08 10:55:47;;;;;;;2.90;1.00;;;;;;;21.40;53.58;98719.38;5066882;28;20052;-82
2021/08/08 10:58:16;;;;;;;6.03;1.10;;;;;;;21.93;52.07;98713.88;5050549;28;20492;-82
2021/08/08 11:00:48;;;;;;;4.00;1.20;;;;;;;22.26;52.23;98720.91;5052510;28;20049;-82
2021/08/08 11:03:16;;;;;;;5.22;1.60;;;;;;;22.60;50.37;98701.06;5058697;28;20077;-82
2021/08/08 11:05:44;;;;;;;1.48;0.77;;;;;;;22.55;49.72;98728.78;5055000;28;20045;-82
2021/08/08 11:08:12;;;;;;;3.20;1.92;;;;;;;22.50;47.64;98725.97;5051320;28;20056;-82
2021/08/08 11:10:43;;;;;;;4.55;0.82;;;;;;;22.38;48.88;98730.94;5072496;28;20040;-82
2021/08/08 11:13:23;;;;;;;2.28;0.90;;;;;;;22.71;47.73;98734.34;5074727;28;20454;-83
2021/08/08 11:15:51;;;;;;;1.10;0.60;;;;;;;22.95;46.73;98720.78;5055551;28;20056;-82
2021/08/08 11:18:18;;;;;;;2.85;0.90;;;;;;;22.72;46.02;98702.75;5054367;28;20451;-82
2021/08/08 11:20:45;;;;;;;4.10;1.50;;;;;;;23.25;45.03;98708.84;5060171;28;20044;-82
2021/08/08 11:23:12;;;;;;;4.10;0.73;;;;;;;23.43;46.33;98706.63;5054416;28;20060;-82
2021/08/08 11:25:43;;;;;;;1.90;1.02;;;;;;;23.35;44.80;98716.34;5063422;28;20087;-83
2021/08/08 11:28:11;;;;;;;3.67;0.90;;;;;;;23.36;44.65;98711.63;5074903;28;20396;-83
2021/08/08 11:30:40;;;;;;;2.47;0.80;;;;;;;23.32;44.47;98716.91;5069717;28;20048;-83
2021/08/08 11:33:07;;;;;;;1.25;0.88;;;;;;;23.11;46.50;98714.16;5053459;28;20073;-82